sensor_id;sensor_type;location;lat;lon;timestamp;temperature;humidity
39777;DHT22;25453;48.162;14.510;2023-04-15T00:01:37;8.20;86.50
39777;DHT22;25453;48.162;14.510;2023-04-15T00:04:04;8.20;86.40
39777;DHT22;25453;48.162;14.510;2023-04-15T00:06:31;8.20;86.50
39777;DHT22;25453;48.162;14.510;2023-04-15T00:08:58;8.10;86.40
39777;DHT22;25453;48.162;14.510;2023-04-15T00:11:25;8.10;86.50
39777;DHT22;25453;48.162;14.510;2023-04-15T00:13:52;8.10;86.60
39777;DHT22;25453;48.162;14.510;2023-04-15T00:16:20;8.10;86.70
39777;DHT22;25453;48.162;14.510;2023-04-15T00:18:47;8.10;86.80
39777;DHT22;25453;48.162;14.510;2023-04-15T00:21:14;8.10;86.80
39777;DHT22;25453;48.162;14.510;2023-04-15T00:23:41;8.10;86.40
39777;DHT22;25453;48.162;14.510;2023-04-15T00:26:08;8.00;86.40
39777;DHT22;25453;48.162;14.510;2023-04-15T00:28:35;8.00;86.60
39777;DHT22;25453;48.162;14.510;2023-04-15T00:31:02;8.00;86.60
39777;DHT22;25453;48.162;14.510;2023-04-15T00:33:30;8.00;86.60
39777;DHT22;25453;48.162;14.510;2023-04-15T00:35:57;8.00;86.00
39777;DHT22;25453;48.162;14.510;2023-04-15T00:38:24;7.90;86.10
39777;DHT22;25453;48.162;14.510;2023-04-15T00:40:51;7.90;86.20
39777;DHT22;25453;48.162;14.510;2023-04-15T00:43:18;7.90;86.20
39777;DHT22;25453;48.162;14.510;2023-04-15T00:45:46;7.90;86.30
39777;DHT22;25453;48.162;14.510;2023-04-15T00:48:13;7.90;86.60
39777;DHT22;25453;48.162;14.510;2023-04-15T00:50:43;7.90;86.70
39777;DHT22;25453;48.162;14.510;2023-04-15T00:53:10;7.90;86.70
39777;DHT22;25453;48.162;14.510;2023-04-15T00:55:37;7.90;86.40
39777;DHT22;25453;48.162;14.510;2023-04-15T00:58:05;7.90;86.40
39777;DHT22;25453;48.162;14.510;2023-04-15T01:00:32;7.90;86.30
39777;DHT22;25453;48.162;14.510;2023-04-15T01:03:00;7.90;86.40
39777;DHT22;25453;48.162;14.510;2023-04-15T01:05:27;7.90;86.30
39777;DHT22;25453;48.162;14.510;2023-04-15T01:07:54;7.90;86.20
39777;DHT22;25453;48.162;14.510;2023-04-15T01:10:21;7.90;86.20
39777;DHT22;25453;48.162;14.510;2023-04-15T01:12:48;7.90;86.10
39777;DHT22;25453;48.162;14.510;2023-04-15T01:15:15;7.90;86.10
39777;DHT22;25453;48.162;14.510;2023-04-15T01:17:42;7.90;86.20
39777;DHT22;25453;48.162;14.510;2023-04-15T01:20:09;7.90;86.40
39777;DHT22;25453;48.162;14.510;2023-04-15T01:22:37;7.90;86.40
39777;DHT22;25453;48.162;14.510;2023-04-15T01:25:06;7.90;86.40
39777;DHT22;25453;48.162;14.510;2023-04-15T01:27:34;7.90;86.40
39777;DHT22;25453;48.162;14.510;2023-04-15T01:30:02;7.90;86.40
39777;DHT22;25453;48.162;14.510;2023-04-15T01:32:31;7.90;86.30
39777;DHT22;25453;48.162;14.510;2023-04-15T01:34:58;7.80;86.30
39777;DHT22;25453;48.162;14.510;2023-04-15T01:37:24;7.80;86.10
39777;DHT22;25453;48.162;14.510;2023-04-15T01:39:52;7.80;86.10
39777;DHT22;25453;48.162;14.510;2023-04-15T01:42:20;7.80;86.20
39777;DHT22;25453;48.162;14.510;2023-04-15T01:44:47;7.80;86.20
39777;DHT22;25453;48.162;14.510;2023-04-15T01:47:14;7.70;86.10
39777;DHT22;25453;48.162;14.510;2023-04-15T01:49:41;7.70;86.10
39777;DHT22;25453;48.162;14.510;2023-04-15T01:52:08;7.70;86.20
39777;DHT22;25453;48.162;14.510;2023-04-15T01:54:35;7.70;86.30
39777;DHT22;25453;48.162;14.510;2023-04-15T01:57:02;7.70;86.40
39777;DHT22;25453;48.162;14.510;2023-04-15T01:59:29;7.70;86.50
39777;DHT22;25453;48.162;14.510;2023-04-15T02:01:57;7.70;86.60
39777;DHT22;25453;48.162;14.510;2023-04-15T02:04:24;7.70;86.60
39777;DHT22;25453;48.162;14.510;2023-04-15T02:06:51;7.80;86.60
39777;DHT22;25453;48.162;14.510;2023-04-15T02:09:18;7.80;86.60
39777;DHT22;25453;48.162;14.510;2023-04-15T02:11:45;7.80;86.70
39777;DHT22;25453;48.162;14.510;2023-04-15T02:14:12;7.80;86.80
39777;DHT22;25453;48.162;14.510;2023-04-15T02:16:40;7.80;86.80
39777;DHT22;25453;48.162;14.510;2023-04-15T02:19:07;7.90;86.70
39777;DHT22;25453;48.162;14.510;2023-04-15T02:21:34;7.90;86.80
39777;DHT22;25453;48.162;14.510;2023-04-15T02:24:01;7.90;86.70
39777;DHT22;25453;48.162;14.510;2023-04-15T02:26:28;7.90;86.60
39777;DHT22;25453;48.162;14.510;2023-04-15T02:28:58;7.90;86.40
39777;DHT22;25453;48.162;14.510;2023-04-15T02:31:26;7.90;86.40
39777;DHT22;25453;48.162;14.510;2023-04-15T02:33:53;7.90;86.40
39777;DHT22;25453;48.162;14.510;2023-04-15T02:36:20;7.90;86.40
39777;DHT22;25453;48.162;14.510;2023-04-15T02:38:47;7.90;86.60
39777;DHT22;25453;48.162;14.510;2023-04-15T02:41:14;7.90;86.50
39777;DHT22;25453;48.162;14.510;2023-04-15T02:43:41;7.90;86.30
39777;DHT22;25453;48.162;14.510;2023-04-15T02:46:08;7.80;86.30
39777;DHT22;25453;48.162;14.510;2023-04-15T02:48:38;7.80;86.30
39777;DHT22;25453;48.162;14.510;2023-04-15T02:53:38;7.80;85.80
39777;DHT22;25453;48.162;14.510;2023-04-15T02:56:06;7.70;85.90
39777;DHT22;25453;48.162;14.510;2023-04-15T02:58:34;7.70;86.10
39777;DHT22;25453;48.162;14.510;2023-04-15T03:01:01;7.70;86.20
39777;DHT22;25453;48.162;14.510;2023-04-15T03:03:28;7.70;86.30
39777;DHT22;25453;48.162;14.510;2023-04-15T03:05:55;7.70;86.40
39777;DHT22;25453;48.162;14.510;2023-04-15T03:08:22;7.70;86.30
39777;DHT22;25453;48.162;14.510;2023-04-15T03:10:49;7.70;86.10
39777;DHT22;25453;48.162;14.510;2023-04-15T03:13:18;7.70;85.90
39777;DHT22;25453;48.162;14.510;2023-04-15T03:15:46;7.60;86.00
39777;DHT22;25453;48.162;14.510;2023-04-15T03:18:13;7.70;86.00
39777;DHT22;25453;48.162;14.510;2023-04-15T03:20:41;7.70;86.20
39777;DHT22;25453;48.162;14.510;2023-04-15T03:23:08;7.70;86.10
39777;DHT22;25453;48.162;14.510;2023-04-15T03:25:35;7.70;86.10
39777;DHT22;25453;48.162;14.510;2023-04-15T03:28:03;7.70;86.10
39777;DHT22;25453;48.162;14.510;2023-04-15T03:30:30;7.70;86.10
39777;DHT22;25453;48.162;14.510;2023-04-15T03:32:57;7.70;86.00
39777;DHT22;25453;48.162;14.510;2023-04-15T03:35:24;7.70;86.10
39777;DHT22;25453;48.162;14.510;2023-04-15T03:37:51;7.70;86.30
39777;DHT22;25453;48.162;14.510;2023-04-15T03:40:19;7.70;86.30
39777;DHT22;25453;48.162;14.510;2023-04-15T03:42:46;7.70;86.10
39777;DHT22;25453;48.162;14.510;2023-04-15T03:45:13;7.70;86.00
39777;DHT22;25453;48.162;14.510;2023-04-15T03:47:40;7.70;86.00
39777;DHT22;25453;48.162;14.510;2023-04-15T03:50:07;7.70;86.00
39777;DHT22;25453;48.162;14.510;2023-04-15T03:52:34;7.70;86.00
39777;DHT22;25453;48.162;14.510;2023-04-15T03:55:01;7.70;86.00
39777;DHT22;25453;48.162;14.510;2023-04-15T03:57:28;7.70;86.10
39777;DHT22;25453;48.162;14.510;2023-04-15T03:59:55;7.70;86.00
39777;DHT22;25453;48.162;14.510;2023-04-15T04:02:22;7.70;86.10
39777;DHT22;25453;48.162;14.510;2023-04-15T04:04:50;7.70;86.10
39777;DHT22;25453;48.162;14.510;2023-04-15T04:07:17;7.70;86.00
39777;DHT22;25453;48.162;14.510;2023-04-15T04:09:44;7.70;85.80
39777;DHT22;25453;48.162;14.510;2023-04-15T04:12:13;7.70;85.90
39777;DHT22;25453;48.162;14.510;2023-04-15T04:14:39;7.60;85.80
39777;DHT22;25453;48.162;14.510;2023-04-15T04:17:06;7.60;85.80
39777;DHT22;25453;48.162;14.510;2023-04-15T04:19:34;7.60;85.80
39777;DHT22;25453;48.162;14.510;2023-04-15T04:22:01;7.60;85.90
39777;DHT22;25453;48.162;14.510;2023-04-15T04:24:28;7.60;85.90
39777;DHT22;25453;48.162;14.510;2023-04-15T04:26:55;7.60;85.90
39777;DHT22;25453;48.162;14.510;2023-04-15T04:29:22;7.60;85.80
39777;DHT22;25453;48.162;14.510;2023-04-15T04:31:49;7.60;85.80
39777;DHT22;25453;48.162;14.510;2023-04-15T04:34:16;7.60;85.90
39777;DHT22;25453;48.162;14.510;2023-04-15T04:36:43;7.60;85.80
39777;DHT22;25453;48.162;14.510;2023-04-15T04:39:10;7.60;85.80
39777;DHT22;25453;48.162;14.510;2023-04-15T04:41:37;7.60;86.00
39777;DHT22;25453;48.162;14.510;2023-04-15T04:44:04;7.60;85.90
39777;DHT22;25453;48.162;14.510;2023-04-15T04:46:31;7.60;85.90
39777;DHT22;25453;48.162;14.510;2023-04-15T04:48:58;7.60;85.90
39777;DHT22;25453;48.162;14.510;2023-04-15T04:51:25;7.70;85.80
39777;DHT22;25453;48.162;14.510;2023-04-15T04:53:52;7.70;85.80
39777;DHT22;25453;48.162;14.510;2023-04-15T04:56:20;7.70;85.70
39777;DHT22;25453;48.162;14.510;2023-04-15T04:58:46;7.70;85.60
39777;DHT22;25453;48.162;14.510;2023-04-15T05:01:13;7.60;85.50
39777;DHT22;25453;48.162;14.510;2023-04-15T05:03:41;7.60;85.70
39777;DHT22;25453;48.162;14.510;2023-04-15T05:06:08;7.60;85.90
39777;DHT22;25453;48.162;14.510;2023-04-15T05:08:35;7.60;85.90
39777;DHT22;25453;48.162;14.510;2023-04-15T05:11:05;7.70;86.00
39777;DHT22;25453;48.162;14.510;2023-04-15T05:13:32;7.70;86.10
39777;DHT22;25453;48.162;14.510;2023-04-15T05:15:59;7.70;86.00
39777;DHT22;25453;48.162;14.510;2023-04-15T05:18:27;7.80;85.90
39777;DHT22;25453;48.162;14.510;2023-04-15T05:20:55;7.80;85.80
39777;DHT22;25453;48.162;14.510;2023-04-15T05:23:22;7.80;85.80
39777;DHT22;25453;48.162;14.510;2023-04-15T05:25:49;7.80;85.70
39777;DHT22;25453;48.162;14.510;2023-04-15T05:28:17;7.80;85.80
39777;DHT22;25453;48.162;14.510;2023-04-15T05:30:44;7.80;85.80
39777;DHT22;25453;48.162;14.510;2023-04-15T05:33:11;7.80;85.70
39777;DHT22;25453;48.162;14.510;2023-04-15T05:35:38;7.70;85.80
39777;DHT22;25453;48.162;14.510;2023-04-15T05:38:05;7.70;85.90
39777;DHT22;25453;48.162;14.510;2023-04-15T05:40:32;7.70;85.80
39777;DHT22;25453;48.162;14.510;2023-04-15T05:42:59;7.70;85.60
39777;DHT22;25453;48.162;14.510;2023-04-15T05:45:26;7.70;85.70
39777;DHT22;25453;48.162;14.510;2023-04-15T05:47:53;7.70;85.80
39777;DHT22;25453;48.162;14.510;2023-04-15T05:50:20;7.70;85.80
39777;DHT22;25453;48.162;14.510;2023-04-15T05:52:47;7.70;85.80
39777;DHT22;25453;48.162;14.510;2023-04-15T05:55:14;7.70;85.80
39777;DHT22;25453;48.162;14.510;2023-04-15T05:57:42;7.70;85.80
39777;DHT22;25453;48.162;14.510;2023-04-15T06:00:09;7.70;85.90
39777;DHT22;25453;48.162;14.510;2023-04-15T06:02:36;7.70;85.80
39777;DHT22;25453;48.162;14.510;2023-04-15T06:05:03;7.70;85.70
39777;DHT22;25453;48.162;14.510;2023-04-15T06:07:35;7.70;85.80
39777;DHT22;25453;48.162;14.510;2023-04-15T06:10:03;7.70;85.80
39777;DHT22;25453;48.162;14.510;2023-04-15T06:12:31;7.70;85.90
39777;DHT22;25453;48.162;14.510;2023-04-15T06:14:58;7.70;85.90
39777;DHT22;25453;48.162;14.510;2023-04-15T06:17:26;7.80;86.00
39777;DHT22;25453;48.162;14.510;2023-04-15T06:19:52;7.80;85.90
39777;DHT22;25453;48.162;14.510;2023-04-15T06:22:21;7.80;85.90
39777;DHT22;25453;48.162;14.510;2023-04-15T06:24:49;7.80;86.00
39777;DHT22;25453;48.162;14.510;2023-04-15T06:27:17;7.80;86.00
39777;DHT22;25453;48.162;14.510;2023-04-15T06:29:44;7.80;86.00
39777;DHT22;25453;48.162;14.510;2023-04-15T06:32:11;7.80;86.10
39777;DHT22;25453;48.162;14.510;2023-04-15T06:34:38;7.80;86.00
39777;DHT22;25453;48.162;14.510;2023-04-15T06:37:05;7.90;86.10
39777;DHT22;25453;48.162;14.510;2023-04-15T06:39:33;7.90;86.00
39777;DHT22;25453;48.162;14.510;2023-04-15T06:41:59;7.90;86.00
39777;DHT22;25453;48.162;14.510;2023-04-15T06:44:28;7.90;85.90
39777;DHT22;25453;48.162;14.510;2023-04-15T06:46:58;7.90;86.00
39777;DHT22;25453;48.162;14.510;2023-04-15T06:49:25;7.90;86.00
39777;DHT22;25453;48.162;14.510;2023-04-15T06:51:52;7.90;86.00
39777;DHT22;25453;48.162;14.510;2023-04-15T06:54:19;8.00;86.00
39777;DHT22;25453;48.162;14.510;2023-04-15T06:56:46;8.00;86.00
39777;DHT22;25453;48.162;14.510;2023-04-15T06:59:13;8.00;86.00
39777;DHT22;25453;48.162;14.510;2023-04-15T07:01:40;8.00;86.00
39777;DHT22;25453;48.162;14.510;2023-04-15T07:04:07;8.00;86.00
39777;DHT22;25453;48.162;14.510;2023-04-15T07:06:34;8.00;86.00
39777;DHT22;25453;48.162;14.510;2023-04-15T07:09:01;8.00;86.10
39777;DHT22;25453;48.162;14.510;2023-04-15T07:11:30;8.10;86.00
39777;DHT22;25453;48.162;14.510;2023-04-15T07:13:57;8.10;86.00
39777;DHT22;25453;48.162;14.510;2023-04-15T07:16:24;8.10;86.00
39777;DHT22;25453;48.162;14.510;2023-04-15T07:18:54;8.10;86.00
39777;DHT22;25453;48.162;14.510;2023-04-15T07:21:21;8.10;86.00
39777;DHT22;25453;48.162;14.510;2023-04-15T07:23:49;8.10;86.10
39777;DHT22;25453;48.162;14.510;2023-04-15T07:26:16;8.10;86.10
39777;DHT22;25453;48.162;14.510;2023-04-15T07:28:43;8.10;86.00
39777;DHT22;25453;48.162;14.510;2023-04-15T07:31:12;8.10;86.10
39777;DHT22;25453;48.162;14.510;2023-04-15T07:33:39;8.10;86.00
39777;DHT22;25453;48.162;14.510;2023-04-15T07:36:06;8.10;86.10
39777;DHT22;25453;48.162;14.510;2023-04-15T07:38:33;8.10;86.10
39777;DHT22;25453;48.162;14.510;2023-04-15T07:41:00;8.10;86.10
39777;DHT22;25453;48.162;14.510;2023-04-15T07:43:27;8.10;86.20
39777;DHT22;25453;48.162;14.510;2023-04-15T07:45:55;8.10;86.20
39777;DHT22;25453;48.162;14.510;2023-04-15T07:48:21;8.10;86.10
39777;DHT22;25453;48.162;14.510;2023-04-15T07:50:49;8.10;86.10
39777;DHT22;25453;48.162;14.510;2023-04-15T07:53:17;8.10;86.00
39777;DHT22;25453;48.162;14.510;2023-04-15T07:55:44;8.10;86.10
39777;DHT22;25453;48.162;14.510;2023-04-15T07:58:12;8.10;86.10
39777;DHT22;25453;48.162;14.510;2023-04-15T08:00:39;8.10;86.00
39777;DHT22;25453;48.162;14.510;2023-04-15T08:03:06;8.10;86.10
39777;DHT22;25453;48.162;14.510;2023-04-15T08:05:34;8.10;86.20
39777;DHT22;25453;48.162;14.510;2023-04-15T08:08:01;8.10;86.20
39777;DHT22;25453;48.162;14.510;2023-04-15T08:10:28;8.10;86.20
39777;DHT22;25453;48.162;14.510;2023-04-15T08:12:55;8.10;86.20
39777;DHT22;25453;48.162;14.510;2023-04-15T08:15:24;8.10;86.20
39777;DHT22;25453;48.162;14.510;2023-04-15T08:17:51;8.10;86.20
39777;DHT22;25453;48.162;14.510;2023-04-15T08:20:18;8.10;86.20
39777;DHT22;25453;48.162;14.510;2023-04-15T08:22:46;8.10;86.20
39777;DHT22;25453;48.162;14.510;2023-04-15T08:25:17;8.10;86.20
39777;DHT22;25453;48.162;14.510;2023-04-15T08:27:45;8.10;86.20
39777;DHT22;25453;48.162;14.510;2023-04-15T08:30:12;8.10;86.20
39777;DHT22;25453;48.162;14.510;2023-04-15T08:32:46;8.10;86.20
39777;DHT22;25453;48.162;14.510;2023-04-15T08:35:13;8.10;86.30
39777;DHT22;25453;48.162;14.510;2023-04-15T08:37:41;8.10;86.10
39777;DHT22;25453;48.162;14.510;2023-04-15T08:40:09;8.10;86.10
39777;DHT22;25453;48.162;14.510;2023-04-15T08:42:36;8.10;86.10
39777;DHT22;25453;48.162;14.510;2023-04-15T08:45:09;8.10;86.10
39777;DHT22;25453;48.162;14.510;2023-04-15T08:47:39;8.10;86.10
39777;DHT22;25453;48.162;14.510;2023-04-15T08:50:08;8.10;86.10
39777;DHT22;25453;48.162;14.510;2023-04-15T08:52:36;8.10;86.10
39777;DHT22;25453;48.162;14.510;2023-04-15T08:55:03;8.10;86.10
39777;DHT22;25453;48.162;14.510;2023-04-15T08:57:31;8.10;86.10
39777;DHT22;25453;48.162;14.510;2023-04-15T08:59:59;8.10;86.20
39777;DHT22;25453;48.162;14.510;2023-04-15T09:02:31;8.10;86.20
39777;DHT22;25453;48.162;14.510;2023-04-15T09:04:58;8.10;86.20
39777;DHT22;25453;48.162;14.510;2023-04-15T09:07:25;8.10;86.20
39777;DHT22;25453;48.162;14.510;2023-04-15T09:09:52;8.20;86.20
39777;DHT22;25453;48.162;14.510;2023-04-15T09:12:22;8.20;86.20
39777;DHT22;25453;48.162;14.510;2023-04-15T09:14:49;8.20;86.30
39777;DHT22;25453;48.162;14.510;2023-04-15T09:17:17;8.20;86.10
39777;DHT22;25453;48.162;14.510;2023-04-15T09:19:45;8.20;86.10
39777;DHT22;25453;48.162;14.510;2023-04-15T09:22:12;8.20;85.90
39777;DHT22;25453;48.162;14.510;2023-04-15T09:24:39;8.20;86.00
39777;DHT22;25453;48.162;14.510;2023-04-15T09:27:09;8.20;85.90
39777;DHT22;25453;48.162;14.510;2023-04-15T09:29:36;8.10;85.90
39777;DHT22;25453;48.162;14.510;2023-04-15T09:32:13;8.10;86.00
39777;DHT22;25453;48.162;14.510;2023-04-15T09:34:41;8.10;86.00
39777;DHT22;25453;48.162;14.510;2023-04-15T09:37:08;8.10;86.10
39777;DHT22;25453;48.162;14.510;2023-04-15T09:39:49;8.10;86.30
39777;DHT22;25453;48.162;14.510;2023-04-15T09:42:17;8.20;86.30
39777;DHT22;25453;48.162;14.510;2023-04-15T09:44:50;8.20;86.20
39777;DHT22;25453;48.162;14.510;2023-04-15T09:47:31;8.20;86.10
39777;DHT22;25453;48.162;14.510;2023-04-15T09:49:58;8.20;86.10
39777;DHT22;25453;48.162;14.510;2023-04-15T09:52:26;8.20;86.00
39777;DHT22;25453;48.162;14.510;2023-04-15T09:54:58;8.20;86.00
39777;DHT22;25453;48.162;14.510;2023-04-15T09:57:32;8.20;86.00
39777;DHT22;25453;48.162;14.510;2023-04-15T10:00:00;8.20;86.10
39777;DHT22;25453;48.162;14.510;2023-04-15T10:02:26;8.20;86.00
39777;DHT22;25453;48.162;14.510;2023-04-15T10:04:55;8.20;86.00
39777;DHT22;25453;48.162;14.510;2023-04-15T10:07:22;8.10;85.90
39777;DHT22;25453;48.162;14.510;2023-04-15T10:09:49;8.10;85.90
39777;DHT22;25453;48.162;14.510;2023-04-15T10:12:16;8.10;85.90
39777;DHT22;25453;48.162;14.510;2023-04-15T10:14:46;8.10;86.10
39777;DHT22;25453;48.162;14.510;2023-04-15T10:17:14;8.10;86.20
39777;DHT22;25453;48.162;14.510;2023-04-15T10:19:43;8.10;86.00
39777;DHT22;25453;48.162;14.510;2023-04-15T10:22:10;8.10;86.10
39777;DHT22;25453;48.162;14.510;2023-04-15T10:24:37;8.10;86.20
39777;DHT22;25453;48.162;14.510;2023-04-15T10:27:04;8.20;86.20
39777;DHT22;25453;48.162;14.510;2023-04-15T10:29:32;8.20;86.30
39777;DHT22;25453;48.162;14.510;2023-04-15T10:31:58;8.20;86.30
39777;DHT22;25453;48.162;14.510;2023-04-15T10:34:27;8.30;86.20
39777;DHT22;25453;48.162;14.510;2023-04-15T10:36:55;8.30;86.20
39777;DHT22;25453;48.162;14.510;2023-04-15T10:39:47;8.30;86.00
39777;DHT22;25453;48.162;14.510;2023-04-15T10:42:14;8.30;86.10
39777;DHT22;25453;48.162;14.510;2023-04-15T10:44:42;8.30;86.10
39777;DHT22;25453;48.162;14.510;2023-04-15T10:47:14;8.30;86.20
39777;DHT22;25453;48.162;14.510;2023-04-15T10:49:47;8.30;86.10
39777;DHT22;25453;48.162;14.510;2023-04-15T10:52:15;8.30;86.10
39777;DHT22;25453;48.162;14.510;2023-04-15T10:54:45;8.30;86.00
39777;DHT22;25453;48.162;14.510;2023-04-15T10:57:14;8.30;86.00
39777;DHT22;25453;48.162;14.510;2023-04-15T11:00:29;8.30;86.10
39777;DHT22;25453;48.162;14.510;2023-04-15T11:02:39;8.30;86.20
39777;DHT22;25453;48.162;14.510;2023-04-15T11:05:07;8.30;86.30
39777;DHT22;25453;48.162;14.510;2023-04-15T11:07:35;8.30;86.20
39777;DHT22;25453;48.162;14.510;2023-04-15T11:12:40;8.30;86.10
39777;DHT22;25453;48.162;14.510;2023-04-15T11:17:58;8.30;86.00
39777;DHT22;25453;48.162;14.510;2023-04-15T11:20:25;8.30;85.90
39777;DHT22;25453;48.162;14.510;2023-04-15T11:22:53;8.30;86.10
39777;DHT22;25453;48.162;14.510;2023-04-15T11:25:41;8.30;86.10
39777;DHT22;25453;48.162;14.510;2023-04-15T11:28:09;8.30;86.00
39777;DHT22;25453;48.162;14.510;2023-04-15T11:30:37;8.30;86.00
39777;DHT22;25453;48.162;14.510;2023-04-15T11:33:05;8.30;86.00
39777;DHT22;25453;48.162;14.510;2023-04-15T11:35:32;8.30;86.00
39777;DHT22;25453;48.162;14.510;2023-04-15T11:38:03;8.30;86.10
39777;DHT22;25453;48.162;14.510;2023-04-15T11:40:31;8.30;86.00
39777;DHT22;25453;48.162;14.510;2023-04-15T11:45:31;8.30;86.00
39777;DHT22;25453;48.162;14.510;2023-04-15T11:48:05;8.30;86.10
39777;DHT22;25453;48.162;14.510;2023-04-15T11:50:33;8.40;86.20
39777;DHT22;25453;48.162;14.510;2023-04-15T11:53:02;8.40;86.10
39777;DHT22;25453;48.162;14.510;2023-04-15T11:55:43;8.40;86.20
39777;DHT22;25453;48.162;14.510;2023-04-15T12:00:51;8.50;86.20
39777;DHT22;25453;48.162;14.510;2023-04-15T12:03:26;8.50;86.10
39777;DHT22;25453;48.162;14.510;2023-04-15T12:08:49;8.50;86.10
39777;DHT22;25453;48.162;14.510;2023-04-15T12:11:16;8.50;86.20
39777;DHT22;25453;48.162;14.510;2023-04-15T12:13:43;8.50;86.20
39777;DHT22;25453;48.162;14.510;2023-04-15T12:16:10;8.50;86.20
39777;DHT22;25453;48.162;14.510;2023-04-15T12:18:38;8.50;86.20
39777;DHT22;25453;48.162;14.510;2023-04-15T12:21:11;8.50;86.30
39777;DHT22;25453;48.162;14.510;2023-04-15T12:23:39;8.60;86.10
39777;DHT22;25453;48.162;14.510;2023-04-15T12:26:13;8.60;86.10
39777;DHT22;25453;48.162;14.510;2023-04-15T12:28:40;8.60;86.10
39777;DHT22;25453;48.162;14.510;2023-04-15T12:31:08;8.60;86.10
39777;DHT22;25453;48.162;14.510;2023-04-15T12:33:35;8.60;86.20
39777;DHT22;25453;48.162;14.510;2023-04-15T12:36:03;8.60;86.30
39777;DHT22;25453;48.162;14.510;2023-04-15T12:38:30;8.60;86.20
39777;DHT22;25453;48.162;14.510;2023-04-15T12:40:57;8.60;86.20
39777;DHT22;25453;48.162;14.510;2023-04-15T12:43:24;8.60;86.10
39777;DHT22;25453;48.162;14.510;2023-04-15T12:45:51;8.60;86.20
39777;DHT22;25453;48.162;14.510;2023-04-15T12:48:19;8.60;86.20
39777;DHT22;25453;48.162;14.510;2023-04-15T12:50:46;8.70;86.30
39777;DHT22;25453;48.162;14.510;2023-04-15T12:53:13;8.70;86.20
39777;DHT22;25453;48.162;14.510;2023-04-15T12:55:40;8.70;86.30
39777;DHT22;25453;48.162;14.510;2023-04-15T12:58:07;8.70;86.30
39777;DHT22;25453;48.162;14.510;2023-04-15T13:00:34;8.70;86.20
39777;DHT22;25453;48.162;14.510;2023-04-15T13:03:01;8.70;86.30
39777;DHT22;25453;48.162;14.510;2023-04-15T13:05:32;8.70;86.40
39777;DHT22;25453;48.162;14.510;2023-04-15T13:07:59;8.70;86.30
39777;DHT22;25453;48.162;14.510;2023-04-15T13:10:26;8.70;86.40
39777;DHT22;25453;48.162;14.510;2023-04-15T13:12:54;8.70;86.50
39777;DHT22;25453;48.162;14.510;2023-04-15T13:15:22;8.70;86.40
39777;DHT22;25453;48.162;14.510;2023-04-15T13:17:49;8.70;86.50
39777;DHT22;25453;48.162;14.510;2023-04-15T13:20:16;8.80;86.50
39777;DHT22;25453;48.162;14.510;2023-04-15T13:22:43;8.80;86.50
39777;DHT22;25453;48.162;14.510;2023-04-15T13:25:11;8.80;86.50
39777;DHT22;25453;48.162;14.510;2023-04-15T13:27:38;8.80;86.40
39777;DHT22;25453;48.162;14.510;2023-04-15T13:30:05;8.80;86.40
39777;DHT22;25453;48.162;14.510;2023-04-15T13:32:33;8.80;86.50
39777;DHT22;25453;48.162;14.510;2023-04-15T13:35:00;8.80;86.50
39777;DHT22;25453;48.162;14.510;2023-04-15T13:37:27;8.80;86.50
39777;DHT22;25453;48.162;14.510;2023-04-15T13:39:55;8.80;86.40
39777;DHT22;25453;48.162;14.510;2023-04-15T13:42:22;8.70;86.40
39777;DHT22;25453;48.162;14.510;2023-04-15T13:44:49;8.70;86.50
39777;DHT22;25453;48.162;14.510;2023-04-15T13:47:20;8.70;86.60
39777;DHT22;25453;48.162;14.510;2023-04-15T13:49:47;8.80;86.70
39777;DHT22;25453;48.162;14.510;2023-04-15T13:52:14;8.80;86.80
39777;DHT22;25453;48.162;14.510;2023-04-15T13:54:41;8.80;86.80
39777;DHT22;25453;48.162;14.510;2023-04-15T13:57:08;8.80;86.80
39777;DHT22;25453;48.162;14.510;2023-04-15T13:59:35;8.90;86.80
39777;DHT22;25453;48.162;14.510;2023-04-15T14:02:02;8.90;86.80
39777;DHT22;25453;48.162;14.510;2023-04-15T14:04:30;8.90;86.70
39777;DHT22;25453;48.162;14.510;2023-04-15T14:06:57;8.90;86.70
39777;DHT22;25453;48.162;14.510;2023-04-15T14:09:24;8.90;86.60
39777;DHT22;25453;48.162;14.510;2023-04-15T14:11:53;8.90;86.70
39777;DHT22;25453;48.162;14.510;2023-04-15T14:14:20;8.90;86.70
39777;DHT22;25453;48.162;14.510;2023-04-15T14:16:47;8.90;86.80
39777;DHT22;25453;48.162;14.510;2023-04-15T14:19:14;8.90;86.80
39777;DHT22;25453;48.162;14.510;2023-04-15T14:21:42;8.90;86.80
39777;DHT22;25453;48.162;14.510;2023-04-15T14:24:09;8.90;86.90
39777;DHT22;25453;48.162;14.510;2023-04-15T14:26:36;9.00;86.90
39777;DHT22;25453;48.162;14.510;2023-04-15T14:29:03;9.00;86.90
39777;DHT22;25453;48.162;14.510;2023-04-15T14:31:31;9.00;86.80
39777;DHT22;25453;48.162;14.510;2023-04-15T14:33:58;9.00;86.80
39777;DHT22;25453;48.162;14.510;2023-04-15T14:36:25;9.00;86.80
39777;DHT22;25453;48.162;14.510;2023-04-15T14:38:52;8.90;86.70
39777;DHT22;25453;48.162;14.510;2023-04-15T14:41:19;8.90;86.80
39777;DHT22;25453;48.162;14.510;2023-04-15T14:43:48;8.90;86.80
39777;DHT22;25453;48.162;14.510;2023-04-15T14:46:15;8.90;86.90
39777;DHT22;25453;48.162;14.510;2023-04-15T14:48:42;8.90;86.90
39777;DHT22;25453;48.162;14.510;2023-04-15T14:51:09;8.90;86.80
39777;DHT22;25453;48.162;14.510;2023-04-15T14:53:36;8.90;86.90
39777;DHT22;25453;48.162;14.510;2023-04-15T14:56:03;8.90;86.90
39777;DHT22;25453;48.162;14.510;2023-04-15T14:58:30;8.90;86.90
39777;DHT22;25453;48.162;14.510;2023-04-15T15:00:59;8.90;86.90
39777;DHT22;25453;48.162;14.510;2023-04-15T15:03:26;8.90;86.90
39777;DHT22;25453;48.162;14.510;2023-04-15T15:05:53;8.90;86.80
39777;DHT22;25453;48.162;14.510;2023-04-15T15:08:20;8.80;86.80
39777;DHT22;25453;48.162;14.510;2023-04-15T15:10:47;8.80;86.90
39777;DHT22;25453;48.162;14.510;2023-04-15T15:13:15;8.80;86.90
39777;DHT22;25453;48.162;14.510;2023-04-15T15:15:42;8.80;87.00
39777;DHT22;25453;48.162;14.510;2023-04-15T15:18:09;8.80;87.10
39777;DHT22;25453;48.162;14.510;2023-04-15T15:20:37;8.90;87.10
39777;DHT22;25453;48.162;14.510;2023-04-15T15:23:04;8.90;87.10
39777;DHT22;25453;48.162;14.510;2023-04-15T15:25:31;8.90;87.00
39777;DHT22;25453;48.162;14.510;2023-04-15T15:27:57;8.90;87.00
39777;DHT22;25453;48.162;14.510;2023-04-15T15:30:25;8.90;87.00
39777;DHT22;25453;48.162;14.510;2023-04-15T15:32:53;8.90;87.10
39777;DHT22;25453;48.162;14.510;2023-04-15T15:35:20;8.90;87.10
39777;DHT22;25453;48.162;14.510;2023-04-15T15:37:48;8.90;87.10
39777;DHT22;25453;48.162;14.510;2023-04-15T15:40:15;8.90;87.00
39777;DHT22;25453;48.162;14.510;2023-04-15T15:42:42;8.90;87.10
39777;DHT22;25453;48.162;14.510;2023-04-15T15:45:09;8.90;87.10
39777;DHT22;25453;48.162;14.510;2023-04-15T15:47:36;8.90;87.00
39777;DHT22;25453;48.162;14.510;2023-04-15T15:50:04;8.90;86.90